sensor_id;sensor_type;location;lat;lon;timestamp;pressure;altitude;pressure_sealevel;temperature;humidity
21980;BME280;11154;48.558;9.234;2023-07-24T00:01:31;96844.75;;;22.30;69.04
21980;BME280;11154;48.558;9.234;2023-07-24T00:03:33;96850.97;;;22.30;68.48
21980;BME280;11154;48.558;9.234;2023-07-24T00:05:36;96868.88;;;22.31;69.58
21980;BME280;11154;48.558;9.234;2023-07-24T00:07:38;96869.31;;;22.28;70.78
21980;BME280;11154;48.558;9.234;2023-07-24T00:09:43;96871.91;;;22.18;71.65
21980;BME280;11154;48.558;9.234;2023-07-24T00:11:47;96868.81;;;22.10;72.20
21980;BME280;11154;48.558;9.234;2023-07-24T00:13:49;96861.41;;;22.05;72.64
21980;BME280;11154;48.558;9.234;2023-07-24T00:15:51;96849.44;;;22.01;71.63
21980;BME280;11154;48.558;9.234;2023-07-24T00:17:53;96845.41;;;22.04;71.10
21980;BME280;11154;48.558;9.234;2023-07-24T00:19:55;96851.38;;;22.06;70.02
21980;BME280;11154;48.558;9.234;2023-07-24T00:21:57;96858.22;;;22.08;70.29
21980;BME280;11154;48.558;9.234;2023-07-24T00:23:59;96849.25;;;22.08;69.55
21980;BME280;11154;48.558;9.234;2023-07-24T00:26:01;96854.69;;;22.08;69.30
21980;BME280;11154;48.558;9.234;2023-07-24T00:28:07;96872.09;;;22.12;69.66
21980;BME280;11154;48.558;9.234;2023-07-24T00:30:09;96860.75;;;22.15;68.98
21980;BME280;11154;48.558;9.234;2023-07-24T00:32:11;96862.88;;;22.13;68.33
21980;BME280;11154;48.558;9.234;2023-07-24T00:34:14;96865.56;;;22.13;68.29
21980;BME280;11154;48.558;9.234;2023-07-24T00:36:16;96865.09;;;22.16;67.54
21980;BME280;11154;48.558;9.234;2023-07-24T00:38:18;96866.97;;;22.15;67.76
21980;BME280;11154;48.558;9.234;2023-07-24T00:40:20;96848.84;;;22.16;67.48
21980;BME280;11154;48.558;9.234;2023-07-24T00:42:22;96843.44;;;22.16;66.85
21980;BME280;11154;48.558;9.234;2023-07-24T00:44:25;96848.59;;;22.17;66.95
21980;BME280;11154;48.558;9.234;2023-07-24T00:46:28;96848.59;;;22.17;66.28
21980;BME280;11154;48.558;9.234;2023-07-24T00:48:32;96848.31;;;22.19;65.98
21980;BME280;11154;48.558;9.234;2023-07-24T00:50:34;96842.69;;;22.20;65.38
21980;BME280;11154;48.558;9.234;2023-07-24T00:52:37;96854.91;;;22.23;65.64
21980;BME280;11154;48.558;9.234;2023-07-24T00:54:40;96851.69;;;22.26;66.10
21980;BME280;11154;48.558;9.234;2023-07-24T00:56:40;96839.50;;;22.28;66.00
21980;BME280;11154;48.558;9.234;2023-07-24T00:58:42;96835.53;;;22.31;65.91
21980;BME280;11154;48.558;9.234;2023-07-24T01:00:45;96833.91;;;22.30;65.10
21980;BME280;11154;48.558;9.234;2023-07-24T01:02:47;96838.25;;;22.31;65.20
21980;BME280;11154;48.558;9.234;2023-07-24T01:04:49;96848.25;;;22.30;67.13
21980;BME280;11154;48.558;9.234;2023-07-24T01:06:51;96823.78;;;22.25;68.75
21980;BME280;11154;48.558;9.234;2023-07-24T01:08:52;96801.72;;;22.17;69.09
21980;BME280;11154;48.558;9.234;2023-07-24T01:10:54;96807.38;;;22.15;68.37
21980;BME280;11154;48.558;9.234;2023-07-24T01:13:05;96821.44;;;22.12;69.00
21980;BME280;11154;48.558;9.234;2023-07-24T01:15:14;96805.06;;;22.02;70.73
21980;BME280;11154;48.558;9.234;2023-07-24T01:17:22;96789.56;;;21.98;71.30
21980;BME280;11154;48.558;9.234;2023-07-24T01:19:33;96785.69;;;21.94;71.63
21980;BME280;11154;48.558;9.234;2023-07-24T01:21:45;96790.47;;;21.87;72.11
21980;BME280;11154;48.558;9.234;2023-07-24T01:23:59;96788.84;;;21.86;71.99
21980;BME280;11154;48.558;9.234;2023-07-24T01:26:06;96775.00;;;21.82;71.99
21980;BME280;11154;48.558;9.234;2023-07-24T01:28:09;96781.13;;;21.78;73.24
21980;BME280;11154;48.558;9.234;2023-07-24T01:30:11;96786.50;;;21.73;73.68
21980;BME280;11154;48.558;9.234;2023-07-24T01:32:13;96782.88;;;21.68;73.54
21980;BME280;11154;48.558;9.234;2023-07-24T01:34:15;96783.69;;;21.68;73.32
21980;BME280;11154;48.558;9.234;2023-07-24T01:36:18;96795.81;;;21.66;74.35
21980;BME280;11154;48.558;9.234;2023-07-24T01:38:21;96807.72;;;21.65;74.07
21980;BME280;11154;48.558;9.234;2023-07-24T01:40:23;96796.34;;;21.63;74.20
21980;BME280;11154;48.558;9.234;2023-07-24T01:42:27;96791.41;;;21.60;74.25
21980;BME280;11154;48.558;9.234;2023-07-24T01:44:30;96798.13;;;21.57;73.73
21980;BME280;11154;48.558;9.234;2023-07-24T01:46:31;96786.84;;;21.60;72.97
21980;BME280;11154;48.558;9.234;2023-07-24T01:48:33;96788.16;;;21.58;73.76
21980;BME280;11154;48.558;9.234;2023-07-24T01:50:34;96778.63;;;21.55;73.92
21980;BME280;11154;48.558;9.234;2023-07-24T01:52:36;96781.31;;;21.55;74.31
21980;BME280;11154;48.558;9.234;2023-07-24T01:54:38;96789.22;;;21.57;74.34
21980;BME280;11154;48.558;9.234;2023-07-24T01:56:39;96785.13;;;21.54;73.89
21980;BME280;11154;48.558;9.234;2023-07-24T01:58:43;96782.59;;;21.53;73.90
21980;BME280;11154;48.558;9.234;2023-07-24T02:00:45;96772.03;;;21.51;74.15
21980;BME280;11154;48.558;9.234;2023-07-24T02:02:47;96766.63;;;21.51;73.87
21980;BME280;11154;48.558;9.234;2023-07-24T02:04:50;96769.06;;;21.53;73.51
21980;BME280;11154;48.558;9.234;2023-07-24T02:06:52;96788.88;;;21.53;74.55
21980;BME280;11154;48.558;9.234;2023-07-24T02:08:52;96772.28;;;21.50;74.66
21980;BME280;11154;48.558;9.234;2023-07-24T02:10:55;96770.91;;;21.47;74.83
21980;BME280;11154;48.558;9.234;2023-07-24T02:12:57;96760.56;;;21.44;75.02
21980;BME280;11154;48.558;9.234;2023-07-24T02:15:00;96742.94;;;21.42;74.90
21980;BME280;11154;48.558;9.234;2023-07-24T02:17:02;96756.13;;;21.38;74.84
21980;BME280;11154;48.558;9.234;2023-07-24T02:19:05;96750.72;;;21.38;74.96
21980;BME280;11154;48.558;9.234;2023-07-24T02:21:08;96761.56;;;21.38;74.50
21980;BME280;11154;48.558;9.234;2023-07-24T02:23:09;96755.56;;;21.36;75.11
21980;BME280;11154;48.558;9.234;2023-07-24T02:25:12;96737.72;;;21.35;74.25
21980;BME280;11154;48.558;9.234;2023-07-24T02:27:34;96734.09;;;21.30;74.51
21980;BME280;11154;48.558;9.234;2023-07-24T02:29:37;96730.75;;;21.23;74.78
21980;BME280;11154;48.558;9.234;2023-07-24T02:31:40;96729.50;;;20.81;77.13
21980;BME280;11154;48.558;9.234;2023-07-24T02:33:41;96715.75;;;20.55;78.06
21980;BME280;11154;48.558;9.234;2023-07-24T02:35:43;96729.81;;;20.40;79.63
21980;BME280;11154;48.558;9.234;2023-07-24T02:37:45;96732.53;;;20.29;79.76
21980;BME280;11154;48.558;9.234;2023-07-24T02:39:46;96732.06;;;20.32;79.72
21980;BME280;11154;48.558;9.234;2023-07-24T02:41:50;96728.94;;;20.24;80.46
21980;BME280;11154;48.558;9.234;2023-07-24T02:43:51;96713.53;;;20.24;79.80
21980;BME280;11154;48.558;9.234;2023-07-24T02:45:53;96712.16;;;20.22;80.06
21980;BME280;11154;48.558;9.234;2023-07-24T02:47:56;96718.84;;;20.19;79.98
21980;BME280;11154;48.558;9.234;2023-07-24T02:49:58;96711.22;;;20.16;82.50
21980;BME280;11154;48.558;9.234;2023-07-24T02:52:00;96709.56;;;20.15;82.98
21980;BME280;11154;48.558;9.234;2023-07-24T02:54:02;96713.13;;;20.16;83.00
21980;BME280;11154;48.558;9.234;2023-07-24T02:56:04;96704.19;;;20.15;83.00
21980;BME280;11154;48.558;9.234;2023-07-24T02:58:06;96700.66;;;20.15;82.72
21980;BME280;11154;48.558;9.234;2023-07-24T03:00:08;96709.72;;;20.09;83.63
21980;BME280;11154;48.558;9.234;2023-07-24T03:02:10;96708.94;;;20.08;83.51
21980;BME280;11154;48.558;9.234;2023-07-24T03:04:14;96701.88;;;20.07;83.61
21980;BME280;11154;48.558;9.234;2023-07-24T03:06:16;96701.28;;;20.05;84.25
21980;BME280;11154;48.558;9.234;2023-07-24T03:08:18;96701.19;;;20.00;84.29
21980;BME280;11154;48.558;9.234;2023-07-24T03:10:19;96694.16;;;19.99;83.80
21980;BME280;11154;48.558;9.234;2023-07-24T03:12:21;96694.25;;;19.93;84.34
21980;BME280;11154;48.558;9.234;2023-07-24T03:14:23;96705.03;;;19.93;84.47
21980;BME280;11154;48.558;9.234;2023-07-24T03:16:24;96701.31;;;19.94;84.62
21980;BME280;11154;48.558;9.234;2023-07-24T03:18:26;96697.19;;;19.91;84.64
21980;BME280;11154;48.558;9.234;2023-07-24T03:20:29;96700.25;;;19.83;85.46
21980;BME280;11154;48.558;9.234;2023-07-24T03:22:31;96701.44;;;19.87;84.81
21980;BME280;11154;48.558;9.234;2023-07-24T03:24:32;96695.34;;;19.80;85.41
21980;BME280;11154;48.558;9.234;2023-07-24T03:26:33;96710.00;;;19.84;85.62
21980;BME280;11154;48.558;9.234;2023-07-24T03:28:35;96705.66;;;19.83;86.40
21980;BME280;11154;48.558;9.234;2023-07-24T03:30:38;96707.31;;;19.84;86.44
21980;BME280;11154;48.558;9.234;2023-07-24T03:32:40;96707.56;;;19.83;86.84
21980;BME280;11154;48.558;9.234;2023-07-24T03:34:42;96707.44;;;19.78;87.23
21980;BME280;11154;48.558;9.234;2023-07-24T03:36:44;96709.56;;;19.76;87.10
21980;BME280;11154;48.558;9.234;2023-07-24T03:38:46;96693.03;;;19.72;86.06
21980;BME280;11154;48.558;9.234;2023-07-24T03:40:48;96705.72;;;19.60;87.03
21980;BME280;11154;48.558;9.234;2023-07-24T03:42:50;96696.91;;;19.65;86.57
21980;BME280;11154;48.558;9.234;2023-07-24T03:44:52;96709.34;;;19.66;86.08
21980;BME280;11154;48.558;9.234;2023-07-24T03:46:53;96707.38;;;19.61;85.99
21980;BME280;11154;48.558;9.234;2023-07-24T03:48:55;96697.72;;;19.65;84.64
21980;BME280;11154;48.558;9.234;2023-07-24T03:50:58;96695.16;;;19.70;84.68
21980;BME280;11154;48.558;9.234;2023-07-24T03:53:01;96684.13;;;19.72;84.98
21980;BME280;11154;48.558;9.234;2023-07-24T03:55:03;96688.81;;;19.76;84.23
21980;BME280;11154;48.558;9.234;2023-07-24T03:57:05;96690.31;;;19.84;83.99
21980;BME280;11154;48.558;9.234;2023-07-24T03:59:07;96690.56;;;19.82;84.30
21980;BME280;11154;48.558;9.234;2023-07-24T04:01:09;96687.84;;;19.82;85.27
21980;BME280;11154;48.558;9.234;2023-07-24T04:03:11;96683.25;;;19.83;85.85
21980;BME280;11154;48.558;9.234;2023-07-24T04:05:12;96687.84;;;19.82;85.88
21980;BME280;11154;48.558;9.234;2023-07-24T04:07:14;96682.91;;;19.79;86.09
21980;BME280;11154;48.558;9.234;2023-07-24T04:09:18;96688.81;;;19.76;86.60
21980;BME280;11154;48.558;9.234;2023-07-24T04:11:20;96690.06;;;19.74;86.47
21980;BME280;11154;48.558;9.234;2023-07-24T04:13:22;96682.47;;;19.71;86.90
21980;BME280;11154;48.558;9.234;2023-07-24T04:15:24;96694.31;;;19.70;86.36
21980;BME280;11154;48.558;9.234;2023-07-24T04:17:25;96686.72;;;19.67;85.38
21980;BME280;11154;48.558;9.234;2023-07-24T04:19:26;96677.44;;;19.63;85.40
21980;BME280;11154;48.558;9.234;2023-07-24T04:21:28;96672.88;;;19.63;85.45
21980;BME280;11154;48.558;9.234;2023-07-24T04:23:29;96658.81;;;19.61;86.27
21980;BME280;11154;48.558;9.234;2023-07-24T04:25:32;96657.16;;;19.60;84.67
21980;BME280;11154;48.558;9.234;2023-07-24T04:27:34;96656.44;;;19.65;84.38
21980;BME280;11154;48.558;9.234;2023-07-24T04:29:36;96651.66;;;19.67;84.19
21980;BME280;11154;48.558;9.234;2023-07-24T04:31:37;96650.09;;;19.71;83.65
21980;BME280;11154;48.558;9.234;2023-07-24T04:33:39;96653.59;;;19.71;85.13
21980;BME280;11154;48.558;9.234;2023-07-24T04:35:40;96639.91;;;19.73;86.17
21980;BME280;11154;48.558;9.234;2023-07-24T04:37:42;96644.47;;;19.72;85.76
21980;BME280;11154;48.558;9.234;2023-07-24T04:39:44;96644.22;;;19.74;84.19
21980;BME280;11154;48.558;9.234;2023-07-24T04:41:47;96637.41;;;19.71;84.68
21980;BME280;11154;48.558;9.234;2023-07-24T04:43:49;96638.59;;;19.75;85.58
21980;BME280;11154;48.558;9.234;2023-07-24T04:45:50;96649.94;;;19.77;87.17
21980;BME280;11154;48.558;9.234;2023-07-24T04:47:52;96650.06;;;19.82;86.32
21980;BME280;11154;48.558;9.234;2023-07-24T04:49:54;96645.38;;;19.89;86.47
21980;BME280;11154;48.558;9.234;2023-07-24T04:51:56;96652.63;;;19.89;86.82
21980;BME280;11154;48.558;9.234;2023-07-24T04:53:57;96650.25;;;19.92;86.97
21980;BME280;11154;48.558;9.234;2023-07-24T04:55:59;96653.75;;;19.93;87.49
21980;BME280;11154;48.558;9.234;2023-07-24T04:58:02;96658.97;;;19.94;87.57
21980;BME280;11154;48.558;9.234;2023-07-24T05:00:05;96659.78;;;19.95;87.03
21980;BME280;11154;48.558;9.234;2023-07-24T05:02:07;96658.47;;;19.97;86.87
21980;BME280;11154;48.558;9.234;2023-07-24T05:04:09;96652.63;;;20.00;87.02
21980;BME280;11154;48.558;9.234;2023-07-24T05:06:10;96656.47;;;20.04;87.51
21980;BME280;11154;48.558;9.234;2023-07-24T05:08:11;96666.19;;;20.05;87.25
21980;BME280;11154;48.558;9.234;2023-07-24T05:10:13;96670.28;;;20.08;87.57
21980;BME280;11154;48.558;9.234;2023-07-24T05:12:15;96660.34;;;20.08;87.57
21980;BME280;11154;48.558;9.234;2023-07-24T05:14:18;96661.13;;;20.09;87.24
21980;BME280;11154;48.558;9.234;2023-07-24T05:16:19;96652.31;;;20.13;87.59
21980;BME280;11154;48.558;9.234;2023-07-24T05:18:21;96646.09;;;20.13;87.35
21980;BME280;11154;48.558;9.234;2023-07-24T05:20:22;96650.53;;;20.19;87.41
21980;BME280;11154;48.558;9.234;2023-07-24T05:22:24;96657.34;;;20.21;88.65
21980;BME280;11154;48.558;9.234;2023-07-24T05:24:26;96664.84;;;20.19;89.34
21980;BME280;11154;48.558;9.234;2023-07-24T05:26:27;96666.16;;;20.17;89.51
21980;BME280;11154;48.558;9.234;2023-07-24T05:28:30;96669.41;;;20.19;90.08
21980;BME280;11154;48.558;9.234;2023-07-24T05:30:34;96687.50;;;20.18;89.70
21980;BME280;11154;48.558;9.234;2023-07-24T05:32:36;96691.75;;;20.14;90.49
21980;BME280;11154;48.558;9.234;2023-07-24T05:34:37;96692.31;;;20.16;91.63
21980;BME280;11154;48.558;9.234;2023-07-24T05:36:40;96701.47;;;20.15;91.53
21980;BME280;11154;48.558;9.234;2023-07-24T05:38:41;96705.81;;;20.16;91.46
21980;BME280;11154;48.558;9.234;2023-07-24T05:40:43;96716.16;;;20.19;91.36
21980;BME280;11154;48.558;9.234;2023-07-24T05:42:45;96714.50;;;20.18;91.50
21980;BME280;11154;48.558;9.234;2023-07-24T05:44:48;96719.44;;;20.21;89.87
21980;BME280;11154;48.558;9.234;2023-07-24T05:46:51;96722.69;;;20.23;89.67
21980;BME280;11154;48.558;9.234;2023-07-24T05:48:52;96716.00;;;20.26;90.67
21980;BME280;11154;48.558;9.234;2023-07-24T05:50:54;96712.59;;;20.30;90.10
21980;BME280;11154;48.558;9.234;2023-07-24T05:52:55;96714.22;;;20.31;90.20
21980;BME280;11154;48.558;9.234;2023-07-24T05:54:57;96728.31;;;20.33;89.91
21980;BME280;11154;48.558;9.234;2023-07-24T05:56:59;96725.03;;;20.31;89.28
21980;BME280;11154;48.558;9.234;2023-07-24T05:59:00;96735.03;;;20.31;88.79
21980;BME280;11154;48.558;9.234;2023-07-24T06:01:02;96741.22;;;20.31;88.78
21980;BME280;11154;48.558;9.234;2023-07-24T06:03:05;96749.94;;;20.33;88.43
21980;BME280;11154;48.558;9.234;2023-07-24T06:05:07;96744.03;;;20.36;88.60
21980;BME280;11154;48.558;9.234;2023-07-24T06:07:09;96736.75;;;20.36;88.08
21980;BME280;11154;48.558;9.234;2023-07-24T06:09:10;96743.06;;;20.42;88.51
21980;BME280;11154;48.558;9.234;2023-07-24T06:11:11;96736.59;;;20.43;88.79
21980;BME280;11154;48.558;9.234;2023-07-24T06:13:13;96721.78;;;20.45;89.46
21980;BME280;11154;48.558;9.234;2023-07-24T06:15:15;96719.66;;;20.47;88.64
21980;BME280;11154;48.558;9.234;2023-07-24T06:17:17;96719.16;;;20.50;89.23
21980;BME280;11154;48.558;9.234;2023-07-24T06:19:20;96706.75;;;20.49;88.69
21980;BME280;11154;48.558;9.234;2023-07-24T06:21:21;96704.94;;;20.55;88.79
21980;BME280;11154;48.558;9.234;2023-07-24T06:23:23;96701.78;;;20.58;88.55
21980;BME280;11154;48.558;9.234;2023-07-24T06:25:25;96690.72;;;20.59;88.43
21980;BME280;11154;48.558;9.234;2023-07-24T06:27:28;96692.69;;;20.64;87.92
21980;BME280;11154;48.558;9.234;2023-07-24T06:29:30;96684.06;;;20.67;89.02
21980;BME280;11154;48.558;9.234;2023-07-24T06:31:31;96671.41;;;20.67;88.13
21980;BME280;11154;48.558;9.234;2023-07-24T06:33:33;96675.75;;;20.68;88.68
21980;BME280;11154;48.558;9.234;2023-07-24T06:35:36;96672.28;;;20.73;88.91
21980;BME280;11154;48.558;9.234;2023-07-24T06:37:38;96658.56;;;20.74;88.44
21980;BME280;11154;48.558;9.234;2023-07-24T06:39:38;96656.69;;;20.75;88.93
21980;BME280;11154;48.558;9.234;2023-07-24T06:41:41;96665.38;;;20.77;89.79
21980;BME280;11154;48.558;9.234;2023-07-24T06:43:42;96675.59;;;20.75;89.27
21980;BME280;11154;48.558;9.234;2023-07-24T06:45:44;96665.81;;;20.74;89.04
21980;BME280;11154;48.558;9.234;2023-07-24T06:47:45;96678.31;;;20.75;88.51
21980;BME280;11154;48.558;9.234;2023-07-24T06:49:47;96670.78;;;20.77;88.53
21980;BME280;11154;48.558;9.234;2023-07-24T06:51:50;96670.06;;;20.81;87.99
21980;BME280;11154;48.558;9.234;2023-07-24T06:53:52;96672.25;;;20.84;87.18
21980;BME280;11154;48.558;9.234;2023-07-24T06:55:53;96675.78;;;20.85;87.62
21980;BME280;11154;48.558;9.234;2023-07-24T06:57:55;96676.59;;;20.85;88.84
21980;BME280;11154;48.558;9.234;2023-07-24T06:59:57;96665.19;;;20.83;87.27
21980;BME280;11154;48.558;9.234;2023-07-24T07:01:57;96661.09;;;20.81;87.06
21980;BME280;11154;48.558;9.234;2023-07-24T07:03:59;96669.53;;;20.84;87.38
21980;BME280;11154;48.558;9.234;2023-07-24T07:06:01;96690.19;;;20.90;87.70
21980;BME280;11154;48.558;9.234;2023-07-24T07:08:04;96698.16;;;20.97;87.67
21980;BME280;11154;48.558;9.234;2023-07-24T07:10:07;96712.22;;;20.99;87.50
21980;BME280;11154;48.558;9.234;2023-07-24T07:12:08;96698.22;;;21.02;88.85
21980;BME280;11154;48.558;9.234;2023-07-24T07:14:10;96704.22;;;21.04;88.24
21980;BME280;11154;48.558;9.234;2023-07-24T07:16:13;96702.06;;;21.05;87.89
21980;BME280;11154;48.558;9.234;2023-07-24T07:18:16;96716.50;;;21.11;87.55
21980;BME280;11154;48.558;9.234;2023-07-24T07:20:18;96703.31;;;21.14;87.72
21980;BME280;11154;48.558;9.234;2023-07-24T07:22:20;96706.88;;;21.20;86.93
21980;BME280;11154;48.558;9.234;2023-07-24T07:24:23;96719.78;;;21.29;86.87
21980;BME280;11154;48.558;9.234;2023-07-24T07:26:25;96716.47;;;21.44;87.00
21980;BME280;11154;48.558;9.234;2023-07-24T07:28:26;96721.88;;;21.60;89.88
21980;BME280;11154;48.558;9.234;2023-07-24T07:30:28;96718.25;;;21.71;88.18
21980;BME280;11154;48.558;9.234;2023-07-24T07:32:29;96725.41;;;21.82;89.31
21980;BME280;11154;48.558;9.234;2023-07-24T07:34:32;96723.94;;;21.91;88.52
21980;BME280;11154;48.558;9.234;2023-07-24T07:36:35;96728.38;;;22.02;88.08
21980;BME280;11154;48.558;9.234;2023-07-24T07:38:36;96727.75;;;22.16;87.15
21980;BME280;11154;48.558;9.234;2023-07-24T07:40:41;96722.56;;;22.31;86.78
21980;BME280;11154;48.558;9.234;2023-07-24T07:42:42;96732.47;;;22.47;86.48
21980;BME280;11154;48.558;9.234;2023-07-24T07:44:45;96720.13;;;22.56;86.16
21980;BME280;11154;48.558;9.234;2023-07-24T07:46:47;96721.50;;;22.58;85.09
21980;BME280;11154;48.558;9.234;2023-07-24T07:48:48;96721.00;;;22.61;85.01
21980;BME280;11154;48.558;9.234;2023-07-24T07:50:50;96730.78;;;22.62;85.23
21980;BME280;11154;48.558;9.234;2023-07-24T07:52:52;96739.44;;;22.64;85.26
21980;BME280;11154;48.558;9.234;2023-07-24T07:54:54;96741.09;;;22.65;85.17
21980;BME280;11154;48.558;9.234;2023-07-24T07:56:57;96738.91;;;22.62;84.84
21980;BME280;11154;48.558;9.234;2023-07-24T07:58:58;96743.75;;;22.60;85.39
21980;BME280;11154;48.558;9.234;2023-07-24T08:01:03;96745.63;;;22.60;84.86
21980;BME280;11154;48.558;9.234;2023-07-24T08:03:04;96747.53;;;22.59;85.88
21980;BME280;11154;48.558;9.234;2023-07-24T08:05:07;96751.31;;;22.58;85.76
21980;BME280;11154;48.558;9.234;2023-07-24T08:07:08;96748.59;;;22.58;86.62
21980;BME280;11154;48.558;9.234;2023-07-24T08:09:10;96737.44;;;22.55;86.58
21980;BME280;11154;48.558;9.234;2023-07-24T08:11:11;96742.63;;;22.56;86.04
21980;BME280;11154;48.558;9.234;2023-07-24T08:13:14;96740.22;;;22.60;87.41
21980;BME280;11154;48.558;9.234;2023-07-24T08:15:16;96724.72;;;22.55;86.92
21980;BME280;11154;48.558;9.234;2023-07-24T08:17:17;96743.13;;;22.53;86.17
21980;BME280;11154;48.558;9.234;2023-07-24T08:19:20;96733.66;;;22.56;86.93
21980;BME280;11154;48.558;9.234;2023-07-24T08:21:21;96714.97;;;22.54;86.17
21980;BME280;11154;48.558;9.234;2023-07-24T08:23:23;96726.97;;;22.63;85.75
21980;BME280;11154;48.558;9.234;2023-07-24T08:25:24;96733.25;;;22.69;85.46
21980;BME280;11154;48.558;9.234;2023-07-24T08:27:26;96727.56;;;22.70;86.36
21980;BME280;11154;48.558;9.234;2023-07-24T08:29:29;96715.41;;;22.73;84.65
21980;BME280;11154;48.558;9.234;2023-07-24T08:31:31;96711.09;;;22.72;85.55
21980;BME280;11154;48.558;9.234;2023-07-24T08:33:32;96710.25;;;22.71;85.48
21980;BME280;11154;48.558;9.234;2023-07-24T08:35:34;96703.75;;;22.72;85.34
21980;BME280;11154;48.558;9.234;2023-07-24T08:37:36;96698.91;;;22.74;86.45
21980;BME280;11154;48.558;9.234;2023-07-24T08:39:37;96688.84;;;22.75;85.79
21980;BME280;11154;48.558;9.234;2023-07-24T08:41:39;96679.91;;;22.74;85.81
21980;BME280;11154;48.558;9.234;2023-07-24T08:43:42;96679.66;;;22.76;86.28
21980;BME280;11154;48.558;9.234;2023-07-24T08:45:45;96678.00;;;22.75;85.68
21980;BME280;11154;48.558;9.234;2023-07-24T08:47:47;96678.84;;;22.75;86.73
21980;BME280;11154;48.558;9.234;2023-07-24T08:49:49;96670.94;;;22.74;87.01
21980;BME280;11154;48.558;9.234;2023-07-24T08:51:52;96669.63;;;22.76;87.73
21980;BME280;11154;48.558;9.234;2023-07-24T08:53:53;96662.59;;;22.75;89.13
21980;BME280;11154;48.558;9.234;2023-07-24T08:55:56;96661.44;;;22.71;89.36
21980;BME280;11154;48.558;9.234;2023-07-24T08:57:58;96656.59;;;22.73;91.31
21980;BME280;11154;48.558;9.234;2023-07-24T09:00:02;96646.81;;;22.72;92.48
21980;BME280;11154;48.558;9.234;2023-07-24T09:02:06;96647.31;;;22.69;91.84
21980;BME280;11154;48.558;9.234;2023-07-24T09:04:08;96653.31;;;22.71;94.73
21980;BME280;11154;48.558;9.234;2023-07-24T09:06:09;96659.00;;;22.70;95.47
21980;BME280;11154;48.558;9.234;2023-07-24T09:08:11;96656.03;;;22.71;96.85
21980;BME280;11154;48.558;9.234;2023-07-24T09:10:13;96651.75;;;22.75;98.90
21980;BME280;11154;48.558;9.234;2023-07-24T09:12:16;96651.47;;;22.77;99.47
21980;BME280;11154;48.558;9.234;2023-07-24T09:14:22;96653.91;;;22.78;99.35
21980;BME280;11154;48.558;9.234;2023-07-24T09:16:28;96657.16;;;22.75;97.69
21980;BME280;11154;48.558;9.234;2023-07-24T09:18:39;96657.72;;;22.82;99.60
21980;BME280;11154;48.558;9.234;2023-07-24T09:20:42;96650.16;;;22.84;100.00
21980;BME280;11154;48.558;9.234;2023-07-24T09:22:50;96656.16;;;22.86;97.60
21980;BME280;11154;48.558;9.234;2023-07-24T09:24:53;96647.72;;;22.83;96.35
21980;BME280;11154;48.558;9.234;2023-07-24T09:26:55;96645.59;;;22.85;97.02
21980;BME280;11154;48.558;9.234;2023-07-24T09:28:57;96639.59;;;22.83;94.94
21980;BME280;11154;48.558;9.234;2023-07-24T09:30:59;96637.44;;;22.85;94.74
21980;BME280;11154;48.558;9.234;2023-07-24T09:33:01;96636.66;;;22.89;97.30
21980;BME280;11154;48.558;9.234;2023-07-24T09:35:15;96627.44;;;22.90;96.33
21980;BME280;11154;48.558;9.234;2023-07-24T09:37:25;96613.59;;;22.92;96.77
21980;BME280;11154;48.558;9.234;2023-07-24T09:39:27;96608.19;;;22.92;99.43
21980;BME280;11154;48.558;9.234;2023-07-24T09:41:29;96605.75;;;22.90;100.00
21980;BME280;11154;48.558;9.234;2023-07-24T09:43:31;96619.88;;;22.92;100.00
21980;BME280;11154;48.558;9.234;2023-07-24T09:45:32;96623.09;;;22.89;100.00
21980;BME280;11154;48.558;9.234;2023-07-24T09:47:33;96625.28;;;22.92;100.00
21980;BME280;11154;48.558;9.234;2023-07-24T09:49:35;96626.94;;;22.93;100.00
21980;BME280;11154;48.558;9.234;2023-07-24T09:51:38;96632.06;;;22.90;100.00
21980;BME280;11154;48.558;9.234;2023-07-24T09:53:44;96638.00;;;22.92;100.00
21980;BME280;11154;48.558;9.234;2023-07-24T09:55:52;96633.16;;;22.94;100.00
21980;BME280;11154;48.558;9.234;2023-07-24T09:57:55;96658.63;;;22.93;100.00
21980;BME280;11154;48.558;9.234;2023-07-24T09:59:58;96671.44;;;22.97;100.00
21980;BME280;11154;48.558;9.234;2023-07-24T10:02:01;96679.06;;;23.00;100.00
21980;BME280;11154;48.558;9.234;2023-07-24T10:04:04;96695.03;;;22.97;100.00
21980;BME280;11154;48.558;9.234;2023-07-24T10:06:08;96693.09;;;22.92;100.00
21980;BME280;11154;48.558;9.234;2023-07-24T10:08:12;96689.28;;;22.88;100.00
21980;BME280;11154;48.558;9.234;2023-07-24T10:10:15;96691.91;;;22.83;100.00
21980;BME280;11154;48.558;9.234;2023-07-24T10:12:17;96707.06;;;22.79;100.00
21980;BME280;11154;48.558;9.234;2023-07-24T10:14:20;96711.09;;;22.72;100.00
21980;BME280;11154;48.558;9.234;2023-07-24T10:16:22;96711.84;;;22.67;100.00
21980;BME280;11154;48.558;9.234;2023-07-24T10:18:26;96713.94;;;22.60;100.00
21980;BME280;11154;48.558;9.234;2023-07-24T10:20:33;96716.91;;;22.59;100.00
21980;BME280;11154;48.558;9.234;2023-07-24T10:22:35;96724.47;;;22.57;100.00
21980;BME280;11154;48.558;9.234;2023-07-24T10:24:39;96727.75;;;22.59;100.00
21980;BME280;11154;48.558;9.234;2023-07-24T10:26:41;96728.25;;;22.56;100.00
21980;BME280;11154;48.558;9.234;2023-07-24T10:28:47;96730.06;;;22.51;100.00
21980;BME280;11154;48.558;9.234;2023-07-24T10:30:55;96737.66;;;22.49;100.00
21980;BME280;11154;48.558;9.234;2023-07-24T10:33:03;96738.16;;;22.46;100.00
21980;BME280;11154;48.558;9.234;2023-07-24T10:35:07;96762.00;;;22.44;100.00
21980;BME280;11154;48.558;9.234;2023-07-24T10:37:09;96778.25;;;22.44;100.00
21980;BME280;11154;48.558;9.234;2023-07-24T10:39:14;96783.91;;;22.42;100.00
21980;BME280;11154;48.558;9.234;2023-07-24T10:41:18;96787.94;;;22.40;100.00
21980;BME280;11154;48.558;9.234;2023-07-24T10:43:20;96791.19;;;22.37;100.00
21980;BME280;11154;48.558;9.234;2023-07-24T10:45:23;96790.91;;;22.38;100.00
21980;BME280;11154;48.558;9.234;2023-07-24T10:47:24;96796.59;;;22.37;100.00
21980;BME280;11154;48.558;9.234;2023-07-24T10:49:26;96787.91;;;22.35;100.00